Terminal Aerodrome Forecast
Issued by NWS Grand Junction, CO

Home | Current Version | Previous Version | Text Only | Print | Product List | Glossary On
Versions: 1 2 3 4 5 6 7 8 9 10 11 12 13 14 15 16 17 18 19 20 21 22 23 24 25 26 27 28 29 30 31 32 33 34 35 36
000
FTUS45 KGJT 301142
TAFGJT
TAF
KGJT 301142Z 3012/3112 VRB04KT P6SM FEW120
     FM301400 13005KT P6SM SCT120
     FM301900 28007KT P6SM VCTS SCT090CB BKN150
     FM310200 06007KT P6SM VCSH FEW090 BKN110
     FM310700 10005KT P6SM SCT110=

USA.gov is the U.S. government's official web portal to all federal, state and local government web resources and services.